Tiempo atmosférico en la estación meteorológica de Ferrol, A Coruña (4 m.)



Fecha
DESCASC
Temp. máxima en grados centígrados (hora)
DESCASC
Temp. mínima en grados centígrados (hora)
DESCASC
Temp. media en grados centígrados
DESCASC
Racha de viento máxima en m/sg (hora)
DESCASC
Velocidad máxima media en intervalos de 10 minutos(hora)
DESCASC
Precipitaciones diarias en mm
DESCASC
Precipitaciones de 00:00 a 06:00 en mm
DESCASC
Precipitaciones de 06:00 a 12:00 en mm
DESCASC
Precipitaciones de 12:00 a 18:00 en mm
DESCASC
Precipitaciones de 18:00 a 24:00 en mm
DESCASC
26-03-2020 15 (17:00) 5.4 (07:20) 10.2 9.44 (17:40) 6.67 (17:20) 0 0 0 0 0
25-03-2020 16 (16:00) 7.2 (07:00) 11.6 8.06 (13:00) 5.56 (14:00) 0 0 0 0 0
24-03-2020 21.8 (16:40) 7 (07:20) 14.4 6.11 (15:50) 5 (17:20) 0 0 0 0 0
23-03-2020 12.6 (00:00) 10.3 (21:20) 11.5 10 (15:20) 7.22 (15:20) 0 0 0 0 0
22-03-2020 16.5 (15:50) 11.7 (07:20) 14.1 9.17 (18:50) 6.39 (16:10) 0 0 0 0 0
21-03-2020 17.7 (14:30) 11 (00:00) 14.4 6.39 (17:20) 4.17 (17:20) 0 0 0 0 0
20-03-2020 17.6 (16:20) 11.7 (00:00) 14.7 5 (17:40) 3.33 (17:40) 20.7 10.7 5.3 0.8 3.9
19-03-2020 16.2 (15:20) 9.9 (00:00) 13.1 6.11 (13:50) 4.72 (14:00) 0.6 0 0 0 0.6
18-03-2020 21.6 (14:30) 8.2 (00:00) 14.9 5 (15:00) 3.61 (15:00) 0 0 0 0 0
17-03-2020 17.1 (14:50) 9.1 (00:00) 13.1 11.11 (15:30) 7.22 (12:10) 0 0 0 0 0
16-03-2020 12.7 (14:30) 7.7 (00:00) 10.2 15 (12:20) 10 (12:20) 1.6 1.2 0.3 0.1 0
15-03-2020 11.2 (09:50) 6.7 (00:00) 8.9 10.56 (10:10) 5.83 (09:30) 12 0 5.8 4.8 1.4
14-03-2020 16.9 (13:50) 6.6 (00:00) 11.7 7.5 (15:20) 4.17 (16:50) 0 0 0 0 0
13-03-2020 13.8 (16:40) 8.7 (23:59) 11.3 9.17 (14:10) 6.11 (06:00) 0 0 0 0 0
12-03-2020 14.2 (12:50) 9.5 (00:00) 11.8 11.39 (17:50) 8.33 (16:10) 0 0 0 0 0
11-03-2020 16.1 (14:10) 10.7 (00:00) 13.4 6.39 (15:20) 4.17 (02:10) 0 0 0 0 0
10-03-2020 16 (16:20) 8.9 (00:00) 12.4 7.5 (06:50) 5.28 (04:30) 0 0 0 0 0
09-03-2020 15.6 (15:20) 8.6 (00:00) 12.1 10 (14:50) 5.28 (14:00) 0 0 0 0 0
08-03-2020 15.5 (14:40) 10 (00:00) 12.8 9.72 (15:00) 5.83 (05:00) 2.3 0.3 2 0 0
07-03-2020 15.5 (14:20) 9.3 (00:00) 12.4 9.17 (20:10) 5.56 (19:50) 0.1 0.1 0 0 0
06-03-2020 13.6 (16:20) 8.2 (00:00) 10.9 14.17 (04:20) 5.28 (07:00) 2.2 1.3 0.6 0 0.3
05-03-2020 16.5 (00:10) 9.8 (00:00) 13.2 12.78 (02:00) 8.61 (01:50) 27.8 17.3 3.6 0.3 6.6
04-03-2020 -- (--) -- (--) -- -- (--) -- (--) -- -- -- 0 0.3
03-03-2020 15.3 (11:10) 10 (00:00) 12.7 18.89 (04:50) 12.78 (05:00) 16.9 3.6 2.1 0 11.2
02-03-2020 13.3 (16:10) 7.6 (00:00) 10.5 14.17 (04:20) 8.61 (23:50) 10.5 7.4 3 0.1 0
01-03-2020 15.1 (14:30) 10.8 (00:00) 13 17.5 (04:20) 11.39 (04:20) 28.9 1.8 0.1 2.8 24.2
29-02-2020 13.5 (12:10) 10.7 (00:00) 12.1 16.94 (08:10) 10.28 (08:40) 22.8 22.4 0.4 0 0
28-02-2020 17.5 (16:00) 10.3 (00:00) 13.9 14.72 (22:40) 9.72 (23:00) 0.3 0 0 0 0.3

Gráficas

Temp. máximas Temp. mínimas Temp. medias Precipitaciones Rachas de viento máximas Velocidades máximas media en intervalos de 10 minutos

Datos horarios

Fecha y hora oficial Temperatura (ºC) Velocidad del viento (km/h) Dirección del viento Racha (km/h) Dirección de racha Precipitación (mm) Presión (hPa) Tendencia (hPa) Humedad (%)
2020-03-28 23:00:00 11.1 9 Nordeste 22 Nordeste 0 1020.5 1.6 82
2020-03-28 22:00:00 11.7 16 Nordeste 23 Norte 0 1020.3 2.4 80
2020-03-28 21:00:00 12.3 13 Nordeste 23 Nordeste 0 1019.6 2.4 78
2020-03-28 20:00:00 13.9 16 Nordeste 28 Nordeste 0 1018.9 2.1 74
2020-03-28 19:00:00 15.8 17 Nordeste 26 Nordeste 0 1017.9 1 61
2020-03-28 18:00:00 17.5 19 Nordeste 26 Nordeste 0 1017.2 -0.1 42
2020-03-28 17:00:00 18.5 17 Norte 27 Nordeste 0 1016.8 -0.7 40
2020-03-28 16:00:00 19.2 15 Norte 27 Nordeste 0 1016.9 -0.9 37
2020-03-28 15:00:00 19.2 15 Nordeste 22 Nordeste 0 1017.3 -0.7 40
2020-03-28 14:00:00 19.4 2 Este 5 Sudoeste 0 1017.5 -0.5 40
2020-03-28 13:00:00 18.4 3 Sur 5 Sur 0 1017.8 0 48
2020-03-28 12:00:00 16.7 0 Calma 6 Sudeste 0 1018 0.8 55
2020-03-28 11:00:00 14.3 5 Nordeste 8 Nordeste 0 1018 1.2 55
2020-03-28 10:00:00 12.4 6 Nordeste 9 Nordeste 0 1017.8 1.7 62
2020-03-28 09:00:00 9.3 5 Nordeste 9 Nordeste 0 1017.2 1.7 80
2020-03-28 08:00:00 7 8 Nordeste 10 Nordeste 0 1016.8 1.4 89
2020-03-28 07:00:00 6.1 6 Norte 14 Norte 0 1016.1 1.2 91
2020-03-28 06:00:00 7.6 8 Norte 13 Norte 0 1015.5 0.4 87
2020-03-28 05:00:00 7.7 5 Norte 15 Nordeste 0 1015.4 0.2 88
2020-03-28 04:00:00 8.3 6 Norte 14 Norte 0 1014.9 -0.2 86
2020-03-28 03:00:00 8.9 7 Norte 13 Norte 0 1015.1 0.1 84
2020-03-28 02:00:00 9.1 7 Norte 18 Norte 0 1015.2 0.4 84
2020-03-28 01:00:00 9.4 9 Norte 17 Norte 0 1015.1 0.6 82
2020-03-28 00:00:00 9.9 9 Norte 16 Nordeste 0 1015 1.1 80
2020-03-27 23:00:00 10.3 8 Norte 17 Este 0 1014.8 1.8 77
2020-03-27 22:00:00 10.3 4 Norte 28 Nordeste 0 1014.5 2.3 74
2020-03-27 21:00:00 11.1 15 Nordeste 33 Nordeste 0 1013.9 2 69
2020-03-27 20:00:00 11.9 17 Nordeste 33 Este 0 1013 1.8 63
2020-03-27 19:00:00 12.9 23 Nordeste 39 Nordeste 0 1012.2 0.7 58
2020-03-27 18:00:00 13.7 23 Nordeste 43 Nordeste 0 1011.9 0.5 55
2020-03-27 17:00:00 14.5 26 Nordeste 46 Nordeste 0 1011.2 -0.7 54
2020-03-27 16:00:00 14.9 28 Nordeste 41 Nordeste 0 1011.5 -1.3 52
2020-03-27 15:00:00 15 24 Nordeste 38 Nordeste 0 1011.4 -2.3 48
2020-03-27 14:00:00 14.9 17 Nordeste 28 Este 0 1011.9 -1.8 48
2020-03-27 13:00:00 13.8 17 Nordeste 30 Nordeste 0 1012.8 -1 48
2020-03-27 12:00:00 12.9 18 Este 36 Nordeste 0 1013.7 0 49
2020-03-27 11:00:00 11.9 21 Nordeste 39 Este 0 1013.7 0.8 55
2020-03-27 10:00:00 10.6 21 Nordeste 39 Nordeste 0 1013.8 1 59
2020-03-27 09:00:00 9.4 15 Este 26 Este 0 1013.7 0.9 67
2020-03-27 08:00:00 7.7 9 Norte 17 Norte 0 1012.9 0.1 74
2020-03-27 07:00:00 7.3 6 Norte 16 Nordeste 0 1012.8 -0.1 73
2020-03-27 06:00:00 7.4 10 Norte 18 Norte 0 1012.8 -0.4 71
2020-03-27 05:00:00 7.8 8 Nordeste 18 Nordeste 0 1012.8 -0.5 71
2020-03-27 04:00:00 7.7 9 Nordeste 13 Nordeste 0 1012.9 -0.7 75
2020-03-27 03:00:00 8.1 6 Norte 15 Nordeste 0 1013.2 -0.6 78
2020-03-27 02:00:00 9 9 Nordeste 15 Norte 0 1013.3 -1 75
2020-03-27 01:00:00 9.1 5 Norte 9 Norte 0 1013.6 -0.7 82
2020-03-27 00:00:00 9.1 6 Norte 8 Norte 0 1013.8 -0.8 78
2020-03-26 23:00:00 9.2 8 Norte 16 Nordeste 0 1014.3 0.2 73
2020-03-26 22:00:00 9.7 11 Nordeste 19 Nordeste 0 1014.3 0.8 69
2020-03-26 21:00:00 10 10 Norte 30 Nordeste 0 1014.6 1.4 67
2020-03-26 20:00:00 10.9 19 Nordeste 31 Nordeste 0 1014.1 1 64
2020-03-26 19:00:00 11.9 20 Nordeste 31 Nordeste 0 1013.5 0.2 58
2020-03-26 18:00:00 13.5 22 Nordeste 34 Nordeste 0 1013.2 -0.6 54
2020-03-26 17:00:00 14.9 22 Nordeste 33 Norte 0 1013.1 -1.3 53
2020-03-26 16:00:00 14.3 21 Norte 33 Nordeste 0 1013.3 -1.8 55
2020-03-26 15:00:00 14.4 20 Nordeste 31 Nordeste 0 1013.8 -1.6 52
2020-03-26 14:00:00 14.2 19 Norte 29 Nordeste 0 1014.4 -1.3 55
2020-03-26 13:00:00 13.7 14 Nordeste 24 Nordeste 0 1015.1 -0.9 60
2020-03-26 12:00:00 13.5 8 Nordeste 18 Nordeste 0 1015.4 -0.6 59
2020-03-26 11:00:00 12.1 5 Nordeste 10 Nordeste 0 1015.7 -0.4 78
2020-03-26 10:00:00 9.8 4 Sudeste 8 Este 0 1016 0.2 89
2020-03-26 09:00:00 8 3 Nordeste 6 Nordeste 0 1016 0.3 93
2020-03-26 08:00:00 6 3 Nordeste 6 Norte 0 1016.1 0.5 94
2020-03-26 07:00:00 5.9 3 Nordeste 8 Nordeste 0 1015.8 0.1 94
2020-03-26 06:00:00 6.8 6 Norte 14 Nordeste 0 1015.7 -0.3 93
2020-03-26 05:00:00 6.9 6 Norte 10 Nordeste 0 1015.6 -0.6 95
2020-03-26 04:00:00 7.6 5 Nordeste 10 Nordeste 0 1015.7 -0.6 95
2020-03-26 03:00:00 8 4 Norte 8 Norte 0 1016 -0.5 94
2020-03-26 02:00:00 9.1 4 Noroeste 12 Norte 0 1016.2 -0.4 94
2020-03-26 01:00:00 10.6 5 Nordeste 9 Nordeste 0 1016.3 -0.2 94
2020-03-26 00:00:00 10.3 6 Nordeste 10 Nordeste 0 1016.5 -0.1 94
2020-03-25 23:00:00 10.5 0 Calma 9 Noroeste 0 1016.6 0.3 93
2020-03-25 22:00:00 11.1 6 Noroeste 12 Noroeste 0 1016.5 0.4 93
2020-03-25 21:00:00 12.5 7 Noroeste 11 Noroeste 0 1016.6 0.9 91
2020-03-25 20:00:00 12.8 3 Nordeste 13 Noroeste 0 1016.3 0.6 92
2020-03-25 19:00:00 13.1 4 Noroeste 15 Noroeste 0 1016.1 0.2 90
2020-03-25 18:00:00 14 7 Noroeste 15 Noroeste 0 1015.7 -0.3 89
2020-03-25 17:00:00 14.3 7 Noroeste 17 Noroeste 0 1015.7 -0.5 86
2020-03-25 16:00:00 15.9 12 Sudoeste 21 Sudoeste 0 1015.9 -0.5 82
2020-03-25 15:00:00 14.8 11 Noroeste 27 Sudoeste 0 1016 -0.6 84
2020-03-25 14:00:00 15.2 20 Sudoeste 29 Sudoeste 0 1016.2 -0.1 86
2020-03-25 13:00:00 14.7 18 Sudoeste 29 Sudoeste 0 1016.4 0.1 88
2020-03-25 12:00:00 14.7 14 Sudoeste 24 Sudoeste 0 1016.6 0.4 89
2020-03-25 11:00:00 14.3 17 Sudoeste 22 Sudoeste 0 1016.3 0.7 91
2020-03-25 10:00:00 11.3 4 Sudeste 11 Sudeste 0 1016.3 0.9 91
2020-03-25 09:00:00 10.2 0 Calma 10 Nordeste 0 1016.2 1 94
2020-03-25 08:00:00 7.6 5 Nordeste 9 Nordeste 0 1015.6 0.6 95
2020-03-25 07:00:00 7.2 3 Nordeste 6 Nordeste 0 1015.4 0.4 95
2020-03-25 06:00:00 8 6 Nordeste 8 Nordeste 0 1015.2 -0.1 95
2020-03-25 05:00:00 7.9 4 Norte 8 Nordeste 0 1015 -0.4 94
2020-03-25 04:00:00 8.4 4 Norte 8 Nordeste 0 1015 -0.5 94
2020-03-25 03:00:00 8.9 3 Norte 5 Nordeste 0 1015.3 -0.2 93
2020-03-25 02:00:00 9.3 4 Norte 7 Nordeste 0 1015.4 0.1 91
2020-03-25 01:00:00 10.4 2 Norte 8 Nordeste 0 1015.5 0.7 89
2020-03-25 00:00:00 11.1 3 Nordeste 10 Norte 0 1015.5 0.8 89
2020-03-24 23:00:00 11.6 5 Norte 6 Norte 0 1015.3 0.9 88
2020-03-24 22:00:00 13.2 4 Norte 12 Norte 0 1014.8 0.5 84
2020-03-24 21:00:00 15.1 8 Norte 13 Nordeste 0 1014.7 0.7 77
2020-03-24 20:00:00 16.3 8 Norte 21 Norte 0 1014.4 0.6 75
2020-03-24 19:00:00 18.2 13 Nordeste 20 Nordeste 0 1014.3 0.3 67
2020-03-24 18:00:00 19.6 13 Nordeste 22 Nordeste 0 1014 -0.6 57
2020-03-24 17:00:00 21.5 16 Nordeste 19 Nordeste 0 1013.8 -1.5 48
2020-03-24 16:00:00 20.7 10 Norte 22 Norte 0 1014 -1.8 50
2020-03-24 15:00:00 21 12 Norte 18 Nordeste 0 1014.6 -1.6 53
2020-03-24 14:00:00 20.9 4 Oeste 16 Sudoeste 0 1015.3 -1.2 59
2020-03-24 13:00:00 19.9 4 Sudoeste 8 Sur 0 1015.8 -0.6 61
2020-03-24 12:00:00 16.5 0 Calma 5 Sur 0 1016.2 -0.1 75
2020-03-24 11:00:00 14.8 2 Sur 5 Sudeste 0 1016.5 0.4 82
2020-03-24 10:00:00 13 5 Nordeste 10 Nordeste 0 1016.4 0.6 84
2020-03-24 09:00:00 9.7 6 Nordeste 9 Norte 0 1016.3 0.5 95
2020-03-24 08:00:00 7.8 5 Nordeste 6 Nordeste 0 1016.1 0.3 95
2020-03-24 07:00:00 7.3 0 Calma 6 Nordeste 0 1015.8 -0.3 95
2020-03-24 06:00:00 7.7 3 Norte 5 Nordeste 0 1015.8 -0.6 95
2020-03-24 05:00:00 8.3 2 Norte 4 Norte 0 1015.8 -1 94
2020-03-24 04:00:00 9.4 0 Calma 8 Sudoeste 0 1016.1 -1 93
2020-03-24 03:00:00 10.7 3 Norte 9 Este 0 1016.4 -1 92
2020-03-24 02:00:00 11.5 3 Nordeste 12 Norte 0 1016.8 -0.8 91
2020-03-24 01:00:00 11.4 8 Norte 12 Norte 0 1017.1 -0.8 91
2020-03-24 00:00:00 10.8 4 Norte 13 Norte 0 1017.4 -0.4 88
2020-03-23 23:00:00 10.6 9 Nordeste 18 Norte 0 1017.6 0.1 88
2020-03-23 22:00:00 10.5 12 Nordeste 18 Nordeste 0 1017.9 0.4 88
2020-03-23 21:00:00 10.4 10 Nordeste 24 Nordeste 0 1017.8 0.5 88
2020-03-23 20:00:00 10.6 14 Nordeste 26 Nordeste 0 1017.5 0.3 87
2020-03-23 19:00:00 11.1 18 Nordeste 25 Este 0 1017.5 -0.3 84
2020-03-23 18:00:00 11.5 17 Nordeste 27 Nordeste 0 1017.3 -0.6 82
2020-03-23 17:00:00 11.9 17 Nordeste 30 Nordeste 0 1017.2 -1 82
2020-03-23 16:00:00 11.6 24 Nordeste 36 Nordeste 0 1017.8 -0.6 84
2020-03-23 15:00:00 11.9 23 Nordeste 34 Nordeste 0 1017.9 -0.7 86
2020-03-23 14:00:00 12 19 Nordeste 29 Nordeste 0 1018.2 -0.4 88
2020-03-23 13:00:00 11.5 18 Nordeste 27 Nordeste 0 1018.4 -0.2 90
2020-03-23 12:00:00 11.6 18 Nordeste 26 Norte 0 1018.6 0.5 91
2020-03-23 11:00:00 11.9 14 Nordeste 23 Nordeste 0 1018.6 1 91
2020-03-23 10:00:00 11.3 17 Nordeste 28 Nordeste 0 1018.6 1.6 91
2020-03-23 09:00:00 11.4 15 Nordeste 27 Norte 0 1018.1 1.4 91
2020-03-23 08:00:00 11.5 12 Norte 22 Nordeste 0 1017.6 1.1 91
2020-03-23 07:00:00 11.5 13 Norte 23 Nordeste 0 1017 0.8 91
2020-03-23 06:00:00 11.8 12 Norte 21 Nordeste 0 1016.7 0.5 91
2020-03-23 05:00:00 11.7 13 Norte 23 Nordeste 0 1016.5 0 91
2020-03-23 04:00:00 12.2 10 Nordeste 20 Nordeste 0 1016.2 -0.4 89
2020-03-23 03:00:00 12.4 11 Nordeste 17 Nordeste 0 1016.2 -0.6 88
2020-03-23 02:00:00 12.4 14 Nordeste 18 Nordeste 0 1016.5 -0.1 88
2020-03-23 01:00:00 12.6 11 Nordeste 20 Nordeste 0 1016.6 0.5 89
2020-03-23 00:00:00 12.6 10 Nordeste 19 Nordeste 0 1016.8 1.2 89
2020-03-22 23:00:00 12.7 13 Nordeste 22 Nordeste 0 1016.6 1.9 89
2020-03-22 22:00:00 13 15 Nordeste 24 Nordeste 0 1016.1 1.9 87
2020-03-22 21:00:00 13.4 12 Nordeste 21 Nordeste 0 1015.6 1.8 88
2020-03-22 20:00:00 13.4 15 Nordeste 28 Nordeste 0 1014.7 1.3 88
2020-03-22 19:00:00 14.1 20 Nordeste 33 Nordeste 0 1014.2 1.1 80
2020-03-22 18:00:00 14.9 19 Nordeste 32 Nordeste 0 1013.8 0.5 82
2020-03-22 17:00:00 15.8 19 Nordeste 30 Norte 0 1013.4 -0.5 79
2020-03-22 16:00:00 16.4 18 Nordeste 26 Nordeste 0 1013.1 -1 77
2020-03-22 15:00:00 15.5 15 Nordeste 27 Norte 0 1013.3 -0.9 79
2020-03-22 14:00:00 15.4 9 Norte 21 Nordeste 0 1013.9 -0.3 84
2020-03-22 13:00:00 14.8 4 Norte 13 Norte 0 1014.1 0.2 86
2020-03-22 12:00:00 14 0 Calma 5 Nordeste 0 1014.2 0.7 84
2020-03-22 11:00:00 13.3 0 Calma 4 Noroeste 0 1014.2 1.1 88
2020-03-22 10:00:00 12.5 0 Calma 4 Nordeste 0 1013.9 1.4 91
2020-03-22 09:00:00 12 2 Norte 6 Nordeste 0 1013.5 1.1 92
2020-03-22 08:00:00 11.8 3 Norte 7 Norte 0 1013.1 1.2 91
2020-03-22 07:00:00 11.9 3 Norte 10 Nordeste 0 1012.5 0.6 91
2020-03-22 06:00:00 11.9 4 Norte 11 Norte 0 1012.4 0.3 92
2020-03-22 05:00:00 12.1 4 Norte 12 Norte 0 1011.9 -0.2 91
2020-03-22 04:00:00 12 6 Norte 11 Nordeste 0 1011.9 -0.2 91
2020-03-22 03:00:00 11.9 4 Noroeste 8 Norte 0 1012.1 0 91
2020-03-22 02:00:00 11.9 4 Norte 9 Noroeste 0 1012.1 0.4 91
2020-03-22 01:00:00 12.1 4 Norte 8 Norte 0 1012.1 0.5 91
2020-03-22 00:00:00 12.3 3 Noroeste 9 Noroeste 0 1012.1 0.6 92
2020-03-21 23:00:00 12.4 5 Nordeste 12 Nordeste 0 1011.7 0.6 91
2020-03-21 22:00:00 12.4 6 Nordeste 11 Nordeste 0 1011.6 1.8 91
2020-03-21 21:00:00 12.4 6 Nordeste 15 Nordeste 0 1011.5 2 91
2020-03-21 20:00:00 12.6 8 Norte 15 Norte 0 1011.1 2 91
2020-03-21 19:00:00 12.9 10 Norte 23 Nordeste 0 1009.8 0.9 91
2020-03-21 18:00:00 13.1 12 Norte 23 Norte 0 1009.5 0.4 91
2020-03-21 17:00:00 14 13 Noroeste 19 Noroeste 0 1009.1 -0.3 91
2020-03-21 16:00:00 15.9 8 Noroeste 22 Oeste 0 1008.9 -0.5 84
2020-03-21 15:00:00 17 9 Sudoeste 14 Sudoeste 0 1009.1 -0.7 82
2020-03-21 14:00:00 16.8 4 Sur 15 Sudoeste 0 1009.4 -0.3 84
2020-03-21 13:00:00 16 10 Sudoeste 19 Sudoeste 0 1009.4 -0.5 88
2020-03-21 12:00:00 15 3 Sur 8 Sudeste 0 1009.8 -0.1 89
2020-03-21 11:00:00 13.4 6 Sudeste 9 Nordeste 0 1009.7 0 94
2020-03-21 10:00:00 12.9 6 Nordeste 10 Nordeste 0 1009.9 0.4 95
2020-03-21 09:00:00 11.9 5 Norte 8 Norte 0 1009.9 0.8 95
2020-03-21 08:00:00 11.5 5 Nordeste 7 Norte 0 1009.7 0.4 95
2020-03-21 07:00:00 11.3 2 Noroeste 8 Norte 0 1009.5 -0.6 95
2020-03-21 06:00:00 11.4 3 Norte 15 Norte 0 1009.1 -1.3 95
2020-03-21 05:00:00 11.7 7 Norte 10 Norte 0 1009.3 -1.5 95
2020-03-21 04:00:00 11.7 3 Norte 11 Nordeste 0 1010.1 -1.2 95
2020-03-21 03:00:00 12.3 6 Este 8 Este 0 1010.4 -1.3 95
2020-03-21 02:00:00 12.4 0 Calma 5 Norte 0 1010.8 -1.2 95
2020-03-21 01:00:00 12.3 4 Norte 6 Norte 0 1011.3 -0.7 95
2020-03-21 00:00:00 12.5 0 Calma 4 Sudeste 0 1011.7 0 95
2020-03-20 23:00:00 12.5 0 Calma 4 Sudoeste 0 1012 0.4 95
2020-03-20 22:00:00 12.5 0 Calma 4 Norte 0.1 1012 0.3 95
2020-03-20 21:00:00 12.6 0 Calma 10 Sudoeste 0 1011.7 0.8 95
2020-03-20 20:00:00 12.9 8 Sudoeste 14 Sudoeste 1.9 1011.6 0.7 95
2020-03-20 19:00:00 13.1 3 Norte 12 Nordeste 1.9 1011.7 0.7 94
2020-03-20 18:00:00 14.2 8 Norte 18 Noroeste 0.7 1010.9 -0.7 91
2020-03-20 17:00:00 16.1 10 Norte 15 Norte 0 1010.9 -1.3 84
2020-03-20 16:00:00 16.9 0 Calma 8 Nordeste 0 1011 -1.5 88
2020-03-20 15:00:00 15.8 4 Nordeste 9 Norte 0 1011.6 -1.3 91
2020-03-20 14:00:00 14.8 6 Nordeste 8 Nordeste 0 1012.2 -1 92
2020-03-20 13:00:00 13.7 6 Nordeste 7 Nordeste 0.1 1012.5 -0.6 95
2020-03-20 12:00:00 13.1 5 Nordeste 6 Nordeste 0.7 1012.9 0 95
2020-03-20 11:00:00 12.7 0 Calma 5 Este 0.5 1013.2 0.6 95
2020-03-20 10:00:00 12.3 0 Calma 6 Nordeste 1.2 1013.1 0.8 95
2020-03-20 09:00:00 12.1 2 Norte 6 Nordeste 0.6 1012.9 0.7 95
2020-03-20 08:00:00 11.8 2 Norte 10 Norte 1.3 1012.6 0.5 95
2020-03-20 07:00:00 11.8 6 Norte 10 Norte 1 1012.3 -0.1 95
2020-03-20 06:00:00 11.9 5 Norte 11 Norte 2.8 1012.2 -0.8 96
2020-03-20 05:00:00 12.1 5 Norte 10 Norte 2.6 1012.1 -1.1 96
2020-03-20 04:00:00 12.3 3 Norte 7 Nordeste 1.1 1012.4 -1.1 95
2020-03-20 03:00:00 12.5 0 Calma 5 Norte 1.7 1013 -1 95
2020-03-20 02:00:00 12.3 2 Norte 8 Norte 1 1013.2 -1.3 95
2020-03-20 01:00:00 12.2 7 Nordeste 9 Nordeste 1.5 1013.5 -1.3 95
2020-03-20 00:00:00 12.3 0 Calma 10 Sudoeste 0.6 1014 -1.1 94
2020-03-19 23:00:00 12.4 7 Sudoeste 10 Sudoeste 0 1014.5 -0.8 94
2020-03-19 22:00:00 12.5 4 Sudoeste 8 Sudoeste 0 1014.8 -0.1 93
2020-03-19 21:00:00 12.8 3 Norte 10 Sudeste 0 1015.1 0.1 93
2020-03-19 20:00:00 13 4 Sudoeste 14 Noroeste 0 1015.3 -0.1 92
2020-03-19 19:00:00 12.9 7 Norte 14 Norte 0 1014.9 -0.6 92
2020-03-19 18:00:00 13.8 8 Nordeste 14 Noroeste 0 1015 -1.1 89
2020-03-19 17:00:00 14 9 Norte 21 Noroeste 0 1015.4 -1.7 89
2020-03-19 16:00:00 15 13 Sudoeste 20 Sudoeste 0 1015.5 -2.2 84
2020-03-19 15:00:00 15.2 12 Sudoeste 22 Sudoeste 0 1016.1 -2.4 87
2020-03-19 14:00:00 14.2 17 Sudoeste 22 Sudoeste 0 1017.1 -1.4 89
2020-03-19 13:00:00 13.6 10 Sudoeste 14 Sudoeste 0 1017.7 -1.1 91
2020-03-19 12:00:00 12.4 9 Sudoeste 13 Sudoeste 0 1018.5 -0.1 93
2020-03-19 11:00:00 12.2 8 Sudeste 11 Sudeste 0 1018.5 -0.2 94
2020-03-19 10:00:00 10.6 3 Nordeste 10 Nordeste 0 1018.8 0 95
2020-03-19 09:00:00 9.9 4 Norte 10 Este 0 1018.6 -0.4 95
2020-03-19 08:00:00 9.9 8 Nordeste 15 Nordeste 0 1018.7 -0.6 95
2020-03-19 07:00:00 10.2 6 Nordeste 13 Nordeste 0 1018.8 -0.9 95
2020-03-19 06:00:00 10.1 8 Nordeste 14 Norte 0 1019 -1.4 95
2020-03-19 05:00:00 10.4 5 Norte 10 Nordeste 0 1019.3 -1.7 95
2020-03-19 04:00:00 10.4 5 Nordeste 9 Nordeste 0 1019.7 -1.5 95
2020-03-19 03:00:00 10 4 Norte 9 Nordeste 0 1020.4 -1.3 95
2020-03-19 02:00:00 10.7 7 Nordeste 9 Nordeste 0 1021 -0.8 95
2020-03-19 01:00:00 10.8 2 Norte 7 Nordeste 0 1021.2 -0.4 95
2020-03-19 00:00:00 11.3 3 Nordeste 8 Nordeste 0 1021.7 0 93
2020-03-18 23:00:00 11.4 3 Norte 11 Norte 0 1021.8 0.6 93
2020-03-18 22:00:00 12.6 8 Norte 15 Nordeste 0 1021.6 0.7 90
2020-03-18 21:00:00 14 11 Nordeste 16 Nordeste 0 1021.7 1.1 87
2020-03-18 20:00:00 15.4 6 Norte 17 Nordeste 0 1021.2 0.3 82
2020-03-18 19:00:00 17.1 7 Norte 13 Noroeste 0 1020.9 -0.7 71
2020-03-18 18:00:00 18.7 9 Norte 17 Noroeste 0 1020.6 -1.5 55
2020-03-18 17:00:00 20.7 7 Norte 15 Noroeste 0 1020.9 -2.1 53
2020-03-18 16:00:00 20.8 10 Norte 15 Noroeste 0 1021.6 -2.2 52
2020-03-18 15:00:00 20.4 13 Norte 18 Norte 0 1022.1 -2.2 55
2020-03-18 14:00:00 20.6 3 Sudeste 6 Sudeste 0 1023 -1.9 57
2020-03-18 13:00:00 17.9 0 Calma 5 Sudeste 0 1023.8 -1.2 69
2020-03-18 12:00:00 15.2 4 Sudeste 5 Sudeste 0 1024.3 -0.8 77
2020-03-18 11:00:00 13.4 3 Sudeste 10 Nordeste 0 1024.9 -0.2 82
2020-03-18 10:00:00 12.2 8 Nordeste 10 Norte 0 1025 0 84
2020-03-18 09:00:00 10 8 Nordeste 11 Norte 0 1025.1 0.1 93
2020-03-18 08:00:00 9.3 7 Norte 13 Noroeste 0 1025.1 0.2 94
2020-03-18 07:00:00 9.6 6 Norte 15 Norte 0 1025 0 95
2020-03-18 06:00:00 8.5 5 Norte 10 Nordeste 0 1025 -0.4 95
2020-03-18 05:00:00 8.9 7 Nordeste 10 Nordeste 0 1024.9 -0.8 94
2020-03-18 04:00:00 9.1 6 Nordeste 9 Norte 0 1025 -1.2 94
2020-03-18 03:00:00 9.4 6 Norte 12 Norte 0 1025.4 -1 93
2020-03-18 02:00:00 10.5 6 Norte 14 Norte 0 1025.7 -1 91
2020-03-18 01:00:00 10.6 7 Norte 15 Norte 0 1026.2 -0.2 90
2020-03-18 00:00:00 10.9 8 Norte 15 Norte 0 1026.4 0.7 88
2020-03-17 23:00:00 11 9 Norte 14 Norte 0 1026.7 1.5 88
2020-03-17 22:00:00 11.4 8 Norte 17 Norte 0 1026.4 1.1 84
2020-03-17 21:00:00 11.9 10 Norte 22 Nordeste 0 1025.7 0.4 80
2020-03-17 20:00:00 12.8 12 Norte 28 Nordeste 0 1025.2 0 79
2020-03-17 19:00:00 14 19 Nordeste 32 Nordeste 0 1025.3 0 75
2020-03-17 18:00:00 15 19 Nordeste 33 Nordeste 0 1025.3 -0.2 70
2020-03-17 17:00:00 16 19 Nordeste 37 Nordeste 0 1025.2 -1 66
2020-03-17 16:00:00 16.2 21 Este 40 Este 0 1025.3 -1.5 66
2020-03-17 15:00:00 16.4 24 Nordeste 31 Nordeste 0 1025.5 -1.5 62
2020-03-17 14:00:00 16.4 21 Nordeste 32 Nordeste 0 1026.2 -1 62
2020-03-17 13:00:00 15.2 22 Nordeste 37 Nordeste 0 1026.8 -0.1 63
2020-03-17 12:00:00 14.7 22 Nordeste 33 Nordeste 0 1027 -0.4 66
2020-03-17 11:00:00 13.4 19 Nordeste 33 Nordeste 0 1027.2 0.5 68
2020-03-17 10:00:00 11.9 15 Nordeste 24 Nordeste 0 1026.9 0.4 73
2020-03-17 09:00:00 10.5 9 Nordeste 16 Nordeste 0 1027.4 1 77
2020-03-17 08:00:00 9.4 9 Nordeste 21 Norte 0 1026.7 0.7 78
2020-03-17 07:00:00 9.5 12 Nordeste 27 Norte 0 1026.5 0.3 78
2020-03-17 06:00:00 9.5 12 Nordeste 23 Nordeste 0 1026.4 0 77
2020-03-17 05:00:00 9.3 12 Norte 21 Norte 0 1026 -0.6 77
2020-03-17 04:00:00 9.1 8 Norte 18 Nordeste 0 1026.2 -0.7 79
2020-03-17 03:00:00 9.5 11 Nordeste 24 Nordeste 0 1026.4 -0.3 77
2020-03-17 02:00:00 9.8 11 Norte 21 Nordeste 0 1026.6 -0.4 78
2020-03-17 01:00:00 10.1 16 Nordeste 27 Nordeste 0 1026.9 0.1 77
2020-03-17 00:00:00 10.3 19 Nordeste 28 Nordeste 0 1026.7 0.3 75
2020-03-16 23:00:00 10.4 10 Nordeste 24 Norte 0 1027 1.4 77
2020-03-16 22:00:00 10.2 10 Nordeste 19 Nordeste 0 1026.8 1.5 77
2020-03-16 21:00:00 10.2 13 Nordeste 23 Norte 0 1026.4 1.9 77
2020-03-16 20:00:00 10.6 15 Nordeste 34 Nordeste 0 1025.6 1.3 77
2020-03-16 19:00:00 11.2 23 Nordeste 41 Norte 0 1025.3 0.9 75
2020-03-16 18:00:00 11.8 32 Nordeste 48 Nordeste 0 1024.5 0.1 71
2020-03-16 17:00:00 12.3 26 Nordeste 46 Nordeste 0 1024.3 0 69
2020-03-16 16:00:00 12.4 30 Nordeste 46 Nordeste 0 1024.4 0.1 64
2020-03-16 15:00:00 11.5 31 Nordeste 48 Nordeste 0 1024.4 0.2 77
2020-03-16 14:00:00 11.9 26 Nordeste 45 Nordeste 0 1024.3 0.6 69
2020-03-16 13:00:00 11.7 28 Nordeste 54 Nordeste 0.1 1024.3 1.3 72
2020-03-16 12:00:00 12.2 29 Nordeste 50 Norte 0 1024.2 2.1 68
2020-03-16 11:00:00 11.1 24 Nordeste 46 Nordeste 0 1023.7 2.5 71
2020-03-16 10:00:00 10.7 22 Nordeste 37 Nordeste 0 1023 2 73
2020-03-16 09:00:00 10.3 17 Nordeste 37 Norte 0.1 1022.1 1.8 78
2020-03-16 08:00:00 9.4 17 Norte 33 Norte 0.1 1021.2 1.5 80
2020-03-16 07:00:00 9.3 16 Norte 31 Nordeste 0.1 1021 1.6 79
2020-03-16 06:00:00 8.8 11 Norte 51 Nordeste 0.3 1020.3 1.1 84
2020-03-16 05:00:00 9 17 Norte 33 Nordeste 0.4 1019.7 1 84
2020-03-16 04:00:00 9 12 Norte 27 Nordeste 0 1019.4 1.1 78
2020-03-16 03:00:00 9.1 15 Norte 31 Norte 0 1019.2 1.2 80
2020-03-16 02:00:00 8.7 11 Norte 22 Norte 0 1018.7 1 86
2020-03-16 01:00:00 8.2 10 Norte 35 Nordeste 0.5 1018.3 1.1 89
2020-03-16 00:00:00 8.6 10 Norte 23 Norte 0 1018 1.2 82
2020-03-15 23:00:00 8.4 11 Norte 23 Norte 0 1017.7 1.5 88
2020-03-15 22:00:00 7 8 Norte 37 Norte 1.4 1017.2 1.4 93
2020-03-15 21:00:00 8.3 9 Norte 18 Nordeste 0 1016.8 1.3 88
2020-03-15 20:00:00 7.5 3 Noroeste 10 Norte 0 1016.2 0.7 91
2020-03-15 19:00:00 8.3 2 Oeste 12 Noroeste 0 1015.8 0.8 92
2020-03-15 18:00:00 8.3 2 Oeste 9 Este 0 1015.5 0 93
2020-03-15 17:00:00 9.2 4 Norte 17 Norte 0.3 1015.5 0.1 90
2020-03-15 16:00:00 8.8 3 Sudoeste 9 Sur 0.2 1015 -0.7 93
2020-03-15 15:00:00 7.9 4 Este 15 Norte 0.1 1015.5 0.7 94
2020-03-15 14:00:00 8.2 6 Sur 26 Norte 2.1 1015.4 0.9 94
2020-03-15 13:00:00 8.4 10 Norte 21 Norte 2.1 1015.7 2 94
2020-03-15 12:00:00 9.2 6 Norte 22 Noroeste 2.9 1014.8 1.6 95
2020-03-15 11:00:00 9.1 14 Norte 38 Noroeste 2.9 1014.5 0.5 94
2020-03-15 10:00:00 10.9 5 Sudoeste 31 Sudoeste 0 1013.7 -0.6 91
2020-03-15 09:00:00 9.9 19 Sudoeste 29 Sudoeste 0 1013.2 -1.5 94
2020-03-15 08:00:00 8.8 4 Noroeste 18 Sudoeste 0 1014 -0.8 94
2020-03-15 07:00:00 8.3 9 Sudoeste 16 Sudoeste 0 1014.3 -1.3 95
2020-03-15 06:00:00 7.8 8 Sudoeste 15 Sudoeste 0 1014.7 -1.2 95
2020-03-15 05:00:00 7.8 10 Sudoeste 16 Sudoeste 0 1014.8 -1.2 95
2020-03-15 04:00:00 7.4 6 Sudoeste 14 Sudoeste 0 1015.6 -1.5 95
2020-03-15 03:00:00 7.6 12 Sudoeste 18 Sudoeste 0 1015.9 -2 95
2020-03-15 02:00:00 7.8 3 Sudoeste 8 Sudoeste 0 1016 -2.5 95
2020-03-15 01:00:00 8.2 6 Sudoeste 10 Sudoeste 0 1017.1 -2 95
2020-03-15 00:00:00 7.8 0 Calma 7 Sur 0 1017.9 -1.7 94
2020-03-14 23:00:00 8.4 0 Calma 5 Nordeste 0 1018.5 -1.2 93
2020-03-14 22:00:00 9.2 3 Nordeste 5 Nordeste 0 1019.1 -0.5 93
2020-03-14 21:00:00 9.8 3 Noroeste 7 Norte 0 1019.6 0.3 91
2020-03-14 20:00:00 10.8 4 Norte 15 Norte 0 1019.7 -0.2 90
2020-03-14 19:00:00 12.5 7 Norte 19 Norte 0 1019.6 -0.7 84
2020-03-14 18:00:00 13.3 12 Norte 21 Norte 0 1019.3 -1.3 77
2020-03-14 17:00:00 14.8 14 Norte 23 Norte 0 1019.9 -1.7 65
2020-03-14 16:00:00 15.6 12 Norte 27 Nordeste 0 1020.3 -2.3 62
2020-03-14 15:00:00 15.4 12 Norte 23 Noroeste 0 1020.6 -2.6 62
2020-03-14 14:00:00 16.1 4 Nordeste 11 Nordeste 0 1021.6 -2.3 58
2020-03-14 13:00:00 15.7 0 Calma 8 Sudeste 0 1022.6 -1.4 63
2020-03-14 12:00:00 13.9 3 Este 4 Este 0 1023.2 -0.8 79
2020-03-14 11:00:00 11.2 0 Calma 5 Sudeste 0 1023.9 0.2 86
2020-03-14 10:00:00 9.9 3 Sudeste 6 Sudeste 0 1024 0.7 89
2020-03-14 09:00:00 9 0 Calma 8 Sudoeste 0 1024 0.8 90
2020-03-14 08:00:00 8.4 6 Sudoeste 11 Sudoeste 0 1023.7 0.5 93
2020-03-14 07:00:00 8.1 5 Sudoeste 10 Sudoeste 0 1023.3 -0.4 92
2020-03-14 06:00:00 8 4 Sudoeste 8 Sudoeste 0 1023.2 -1.1 93
2020-03-14 05:00:00 8 4 Sudoeste 12 Sudoeste 0 1023.2 -1.2 93
2020-03-14 04:00:00 8.5 0 Calma 8 Nordeste 0 1023.7 -1.1 93
2020-03-14 03:00:00 8 5 Nordeste 8 Nordeste 0 1024.3 -0.7 93
2020-03-14 02:00:00 7.3 2 Norte 7 Nordeste 0 1024.4 -0.4 93
2020-03-14 01:00:00 7.1 0 Calma 6 Norte 0 1024.8 0.3 91
2020-03-14 00:00:00 8.7 3 Noroeste 13 Noroeste 0 1025 1.1 88
2020-03-13 23:00:00 10.4 6 Norte 13 Norte 0 1024.8 1.2 84
2020-03-13 22:00:00 10.1 9 Norte 17 Norte 0 1024.5 1.7 84
2020-03-13 21:00:00 10.2 9 Norte 20 Norte 0 1023.9 1.3 84
2020-03-13 20:00:00 10.7 12 Norte 24 Norte 0 1023.6 1.1 83
2020-03-13 19:00:00 11.4 12 Norte 29 Norte 0 1022.8 -0.1 80
2020-03-13 18:00:00 12.5 12 Norte 24 Nordeste 0 1022.6 -1.1 75
2020-03-13 17:00:00 13.2 16 Norte 27 Nordeste 0 1022.5 -1.9 73
2020-03-13 16:00:00 13.2 14 Norte 28 Nordeste 0 1022.9 -2.1 72
2020-03-13 15:00:00 12.8 16 Norte 33 Norte 0 1023.7 -1.2 72
2020-03-13 14:00:00 12.8 21 Norte 31 Nordeste 0 1024.4 -0.7 73
2020-03-13 13:00:00 12.3 18 Nordeste 28 Norte 0 1025 0.1 75
2020-03-13 12:00:00 12 16 Nordeste 25 Nordeste 0 1024.9 0.4 75
2020-03-13 11:00:00 11.9 18 Nordeste 27 Norte 0 1025.1 1.1 75
2020-03-13 10:00:00 11.3 19 Nordeste 31 Nordeste 0 1024.9 1.1 75
2020-03-13 09:00:00 10.4 12 Nordeste 21 Nordeste 0 1024.5 0.6 77
2020-03-13 08:00:00 10.2 14 Nordeste 22 Nordeste 0 1024 -0.1 79
2020-03-13 07:00:00 10 13 Nordeste 25 Nordeste 0 1023.8 -0.9 80
2020-03-13 06:00:00 9.9 22 Nordeste 29 Nordeste 0 1023.9 -1.1 80
2020-03-13 05:00:00 9.8 16 Nordeste 30 Nordeste 0 1024.1 -1.2 80
2020-03-13 04:00:00 10.2 18 Nordeste 27 Nordeste 0 1024.7 -0.6 78
2020-03-13 03:00:00 10.2 16 Nordeste 28 Nordeste 0 1025 -0.5 75
2020-03-13 02:00:00 10.4 14 Nordeste 28 Nordeste 0 1025.3 -0.1 75
2020-03-13 01:00:00 10.1 17 Nordeste 25 Nordeste 0 1025.3 0 75
2020-03-13 00:00:00 9.5 13 Norte 24 Nordeste 0 1025.5 0.2 73
2020-03-12 23:00:00 9.8 13 Norte 21 Nordeste 0 1025.4 0.5 69
2020-03-12 22:00:00 9.7 10 Nordeste 24 Nordeste 0 1025.3 0.8 79
2020-03-12 21:00:00 10.8 18 Nordeste 28 Nordeste 0 1025.3 1.3 77
2020-03-12 20:00:00 11 22 Nordeste 30 Nordeste 0 1024.9 1 75
2020-03-12 19:00:00 11.5 22 Nordeste 32 Nordeste 0 1024.5 0.7 73
2020-03-12 18:00:00 11.8 21 Nordeste 41 Nordeste 0 1024 -0.2 73
2020-03-12 17:00:00 12.5 23 Nordeste 40 Nordeste 0 1023.9 -0.8 70
2020-03-12 16:00:00 13.1 26 Nordeste 36 Nordeste 0 1023.8 -0.9 69
2020-03-12 15:00:00 13 24 Nordeste 36 Nordeste 0 1024.2 -0.1 80
2020-03-12 14:00:00 12.3 23 Nordeste 33 Nordeste 0 1024.7 0.6 86
2020-03-12 13:00:00 13.3 20 Nordeste 27 Nordeste 0 1024.7 0.9 82
2020-03-12 12:00:00 13.2 13 Nordeste 21 Nordeste 0 1024.3 1 87
2020-03-12 11:00:00 12.3 7 Norte 22 Noroeste 0 1024.1 1.3 91
2020-03-12 10:00:00 12.7 3 Nordeste 6 Nordeste 0 1023.8 1.4 95
2020-03-12 09:00:00 11.6 0 Calma 3 Este 0 1023.3 1.1 97
2020-03-12 08:00:00 11.4 2 Nordeste 6 Nordeste 0 1022.8 0.8 97
2020-03-12 07:00:00 11.1 0 Calma 5 Nordeste 0 1022.4 -0.1 95
2020-03-12 06:00:00 11 2 Norte 6 Norte 0 1022.2 -0.7 95
2020-03-12 05:00:00 10.8 0 Calma 3 Norte 0 1022 -0.9 95
2020-03-12 04:00:00 11.2 3 Sudoeste 5 Sur 0 1022.5 -0.4 95
2020-03-12 03:00:00 11 2 Nordeste 5 Nordeste 0 1022.9 0.1 95
2020-03-12 02:00:00 10.1 0 Calma 4 Nordeste 0 1022.9 0.2 95
2020-03-12 01:00:00 10.1 0 Calma 7 Norte 0 1022.9 0.3 95
2020-03-12 00:00:00 10.7 0 Calma 7 Sudeste 0 1022.8 0.3 95
2020-03-11 23:00:00 11.8 4 Noroeste 10 Noroeste 0 1022.7 0.4 93
2020-03-11 22:00:00 12.7 0 Calma 6 Sudoeste 0 1022.6 0.2 91
2020-03-11 21:00:00 13.8 3 Sudoeste 5 Sudeste 0 1022.5 0.2 91
2020-03-11 20:00:00 14.2 3 Sur 10 Sur 0 1022.3 0.1 92
2020-03-11 19:00:00 14.2 6 Sudoeste 14 Sudoeste 0 1022.4 0.1 91
2020-03-11 18:00:00 14.4 11 Sudoeste 17 Sudoeste 0 1022.3 0 92
2020-03-11 17:00:00 14.7 6 Sur 14 Sudoeste 0 1022.2 -0.6 89
2020-03-11 16:00:00 15.2 3 Sudeste 23 Norte 0 1022.3 -1 88
2020-03-11 15:00:00 15.9 11 Sudoeste 17 Sudoeste 0 1022.3 -1.3 84
2020-03-11 14:00:00 15.9 12 Sudoeste 19 Sudoeste 0 1022.8 -1 84
2020-03-11 13:00:00 14.8 11 Sur 17 Sudoeste 0 1023.3 -0.4 89
2020-03-11 12:00:00 14.3 9 Sudoeste 16 Sudoeste 0 1023.6 0.1 91
2020-03-11 11:00:00 13.7 7 Sur 14 Sudoeste 0 1023.8 0.2 91
2020-03-11 10:00:00 13.1 9 Sudoeste 15 Sudoeste 0 1023.7 -0.1 92
2020-03-11 09:00:00 12.8 8 Sudoeste 13 Sudoeste 0 1023.5 -0.4 93
2020-03-11 08:00:00 12.7 10 Sur 15 Sur 0 1023.6 -0.4 93
2020-03-11 07:00:00 12.7 6 Sudoeste 10 Sur 0 1023.8 -0.5 93
2020-03-11 06:00:00 12.9 6 Sudoeste 13 Sudoeste 0 1023.9 -0.9 91
2020-03-11 05:00:00 13 8 Sudoeste 14 Sudoeste 0 1024 -1.2 91
2020-03-11 04:00:00 13.3 8 Sudoeste 16 Sudoeste 0 1024.3 -1.2 92
2020-03-11 03:00:00 13.3 10 Sudoeste 22 Sudoeste 0 1024.8 -0.4 91
2020-03-11 02:00:00 13.4 11 Sudoeste 16 Sudoeste 0 1025.2 -0.2 91
2020-03-11 01:00:00 13.6 10 Sudoeste 18 Sudoeste 0 1025.5 -0.1 91
2020-03-11 00:00:00 13.9 12 Sudoeste 18 Sudoeste 0 1025.2 -0.4 90
2020-03-10 23:00:00 14.1 12 Sudoeste 17 Sudoeste 0 1025.4 0 90
2020-03-10 22:00:00 14.2 10 Sudoeste 16 Sudoeste 0 1025.6 0.8 89
2020-03-10 21:00:00 14.4 2 Sur 8 Sur 0 1025.6 0.8 89
2020-03-10 20:00:00 14.6 6 Sudoeste 16 Sudoeste 0 1025.4 0.4 88
2020-03-10 19:00:00 15.1 12 Sudoeste 19 Sur 0 1024.8 -0.2 86
2020-03-10 18:00:00 15.5 14 Sudoeste 23 Sudoeste 0 1024.8 -0.5 84
2020-03-10 17:00:00 15.8 10 Sudoeste 21 Sudoeste 0 1025 -0.8 83
2020-03-10 16:00:00 15.9 12 Sudoeste 20 Sudoeste 0 1025 -1.5 82
2020-03-10 15:00:00 15.6 13 Sudoeste 21 Sudoeste 0 1025.3 -1.5 82
2020-03-10 14:00:00 15 14 Sudoeste 24 Sudoeste 0 1025.8 -0.9 84
2020-03-10 13:00:00 13.9 14 Sudoeste 26 Sudoeste 0 1026.5 0 88
2020-03-10 12:00:00 13.3 10 Sur 23 Sur 0 1026.8 0.7 88
2020-03-10 11:00:00 12.7 14 Sudoeste 22 Sudoeste 0 1026.7 1 89
2020-03-10 10:00:00 11.7 15 Sudoeste 23 Sudoeste 0 1026.5 0.8 92
2020-03-10 09:00:00 11.4 16 Sudoeste 24 Sudoeste 0 1026.1 0 92
2020-03-10 08:00:00 11.1 14 Sudoeste 25 Sudoeste 0 1025.7 -0.4 92
2020-03-10 07:00:00 10.7 15 Sudoeste 27 Sudoeste 0 1025.7 -1.1 93
2020-03-10 06:00:00 10.4 16 Sudoeste 25 Sudoeste 0 1026.1 -1.1 93
2020-03-10 05:00:00 10.5 17 Sudoeste 24 Sudoeste 0 1026.1 -1.3 93
2020-03-10 04:00:00 10.4 12 Sur 22 Sudoeste 0 1026.8 -1 93
2020-03-10 03:00:00 10 6 Sudoeste 18 Sudoeste 0 1027.2 -0.8 94
2020-03-10 02:00:00 9.2 2 Noroeste 12 Sudoeste 0 1027.4 -0.9 93
2020-03-10 01:00:00 9.3 2 Noroeste 21 Sudoeste 0 1027.8 -0.5 93
2020-03-10 00:00:00 10.4 15 Sudoeste 22 Sur 0 1028 -0.3 93
2020-03-09 23:00:00 10.3 2 Oeste 12 Sudoeste 0 1028.3 0.1 93
2020-03-09 22:00:00 11.1 4 Nordeste 9 Norte 0 1028.3 0.2 92
2020-03-09 21:00:00 10.9 5 Nordeste 12 Nordeste 0 1028.3 0.1 91
2020-03-09 20:00:00 12.1 4 Sur 13 Sur 0 1028.2 0 88
2020-03-09 19:00:00 13 6 Sur 16 Sudoeste 0 1028.1 -0.2 84
2020-03-09 18:00:00 13.8 3 Sudoeste 22 Sudoeste 0 1028.2 -0.9 79
2020-03-09 17:00:00 14.3 7 Norte 23 Sudoeste 0 1028.2 -1.5 78
2020-03-09 16:00:00 15.2 16 Sudoeste 30 Sudoeste 0 1028.3 -2.3 69
2020-03-09 15:00:00 15.3 17 Sudoeste 36 Sudoeste 0 1029.1 -1.4 74
2020-03-09 14:00:00 14.4 19 Sudoeste 29 Sudoeste 0 1029.7 -1 73
2020-03-09 13:00:00 14.1 17 Sudoeste 26 Sudoeste 0 1030.6 0.3 72
2020-03-09 12:00:00 13.3 16 Sudoeste 22 Sudoeste 0 1030.5 0.7 80
2020-03-09 11:00:00 11.7 5 Sur 14 Sudoeste 0 1030.7 1.7 89
2020-03-09 10:00:00 10.4 10 Sudoeste 13 Sudoeste 0 1030.3 1.6 92
2020-03-09 09:00:00 9.5 8 Sudoeste 14 Sudoeste 0 1029.8 1.2 93
2020-03-09 08:00:00 9.1 8 Sudoeste 12 Sudoeste 0 1029 1.2 93
2020-03-09 07:00:00 9.4 0 Calma 13 Sudoeste 0 1028.7 0.4 93
2020-03-09 06:00:00 9.2 4 Sudoeste 8 Sur 0 1028.6 -0.5 93
2020-03-09 05:00:00 9.5 0 Calma 7 Nordeste 0 1027.8 -0.7 92
2020-03-09 04:00:00 9.9 2 Noroeste 9 Sur 0 1028.3 -0.3 91
2020-03-09 03:00:00 9.9 0 Calma 8 Sur 0 1029.1 0.7 91
2020-03-09 02:00:00 10.9 0 Calma 7 Sur 0 1028.5 0.1 89
2020-03-09 01:00:00 10.6 0 Calma 7 Sudeste 0 1028.6 1.4 89
2020-03-09 00:00:00 11.7 5 Sudeste 12 Sudeste 0 1028.4 1.3 89
2020-03-08 23:00:00 12.2 2 Sudeste 14 Sur 0 1028.4 1.6 87
2020-03-08 22:00:00 12.4 6 Sur 17 Sur 0 1027.2 1.2 86
2020-03-08 21:00:00 11.7 3 Sudeste 16 Norte 0 1027.1 1.9 88
2020-03-08 20:00:00 12.6 10 Norte 23 Norte 0 1026.8 1.6 80
2020-03-08 19:00:00 13.3 5 Sudeste 24 Sur 0 1026 1.6 84
2020-03-08 18:00:00 13.6 12 Sur 29 Sudoeste 0 1025.2 1 79
2020-03-08 17:00:00 14.2 12 Sur 32 Sur 0 1025.2 0.9 77
2020-03-08 16:00:00 15.2 7 Sur 32 Sudoeste 0 1024.4 0.3 75
2020-03-08 15:00:00 14.8 12 Sudoeste 35 Sudoeste 0 1024.2 0.2 89
2020-03-08 14:00:00 14.6 6 Este 31 Sudoeste 0 1024.3 0.2 92
2020-03-08 13:00:00 13.4 13 Sudoeste 28 Sudoeste 0 1024.1 0.6 95
2020-03-08 12:00:00 12.6 16 Sudoeste 24 Sudoeste 0.1 1024 0.9 95
2020-03-08 11:00:00 11.6 4 Sudoeste 26 Sudoeste 0.7 1024.1 1.1 94
2020-03-08 10:00:00 11.5 15 Sudoeste 31 Sudoeste 0.1 1023.5 0.6 93
2020-03-08 09:00:00 11.2 10 Sudoeste 22 Sudoeste 0 1023.1 0.2 93
2020-03-08 08:00:00 10.9 11 Sudoeste 19 Sudoeste 0.6 1023 0.4 93
2020-03-08 07:00:00 10.5 12 Sudoeste 19 Sudoeste 0.5 1022.9 -0.2 93
2020-03-08 06:00:00 10.4 12 Sudoeste 30 Sudoeste 0.3 1022.9 -0.9 91
2020-03-08 05:00:00 11.2 21 Sudoeste 29 Sudoeste 0 1022.6 -1.6 84
2020-03-08 04:00:00 10.8 19 Sudoeste 30 Sur 0 1023.1 -1.2 83
2020-03-08 03:00:00 10.6 14 Sudoeste 23 Sudoeste 0 1023.8 -1.2 82
2020-03-08 02:00:00 10.2 13 Sudoeste 23 Sudoeste 0 1024.2 -1.5 82
2020-03-08 01:00:00 10.1 16 Sudoeste 27 Sudoeste 0 1024.3 -1.4 84
2020-03-08 00:00:00 10.2 18 Sudoeste 25 Sudoeste 0 1025 -0.6 84
2020-03-07 23:00:00 11.4 18 Sudoeste 29 Sudoeste 0 1025.7 0.1 75
2020-03-07 22:00:00 11.8 14 Sudoeste 28 Sudoeste 0 1025.7 0.1 74
2020-03-07 21:00:00 12.3 18 Sudoeste 33 Sudoeste 0 1025.6 0 71
2020-03-07 20:00:00 13 19 Sudoeste 30 Sudoeste 0 1025.6 -0.2 69
2020-03-07 19:00:00 13.2 5 Sudoeste 18 Sudoeste 0 1025.6 -0.5 77
2020-03-07 18:00:00 13.4 4 Sur 22 Sudoeste 0 1025.6 -0.9 78
2020-03-07 17:00:00 13.6 12 Sudoeste 20 Sudoeste 0 1025.8 -1.5 78
2020-03-07 16:00:00 13.8 12 Sudoeste 24 Sudoeste 0 1026.1 -1.7 76
2020-03-07 15:00:00 14.8 8 Sudoeste 19 Sudoeste 0 1026.5 -1.7 58
2020-03-07 14:00:00 15 11 Sudoeste 24 Sudoeste 0 1027.3 -1.3 55
2020-03-07 13:00:00 14.5 13 Sudoeste 20 Sudoeste 0 1027.8 -0.7 57
2020-03-07 12:00:00 13.6 8 Sudoeste 14 Sur 0 1028.2 -0.1 68
2020-03-07 11:00:00 12.8 10 Sudoeste 16 Sudoeste 0 1028.6 0.7 84
2020-03-07 10:00:00 11.3 12 Sudoeste 19 Sur 0 1028.5 0.8 94
2020-03-07 09:00:00 10.2 7 Sudoeste 11 Sur 0 1028.3 0.8 95
2020-03-07 08:00:00 10.4 3 Sudoeste 13 Sudoeste 0 1027.9 0.5 95
2020-03-07 07:00:00 10.5 10 Sudoeste 14 Sudoeste 0 1027.7 0.1 95
2020-03-07 06:00:00 9.8 0 Calma 8 Oeste 0 1027.5 -0.8 95
2020-03-07 05:00:00 10 0 Calma 8 Oeste 0 1027.4 -0.8 95
2020-03-07 04:00:00 10.7 3 Oeste 10 Noroeste 0 1027.6 -0.6 95
2020-03-07 03:00:00 11.1 4 Norte 17 Norte 0 1028.3 0.3 95
2020-03-07 02:00:00 11.2 2 Sudoeste 12 Norte 0.1 1028.2 0 95
2020-03-07 01:00:00 11.4 4 Norte 13 Norte 0 1028.2 0.4 95
2020-03-07 00:00:00 11.1 3 Sudoeste 8 Oeste 0 1028 0.4 95
2020-03-06 23:00:00 10.6 5 Sudoeste 16 Sudoeste 0.3 1028.2 1 95
2020-03-06 22:00:00 10.8 8 Sur 13 Sur 0 1027.8 0.9 94
2020-03-06 21:00:00 10.7 6 Sudoeste 10 Sudoeste 0 1027.6 1.5 93
2020-03-06 20:00:00 10.8 5 Sudoeste 13 Norte 0 1027.2 1.2 91
2020-03-06 19:00:00 11.8 5 Norte 14 Norte 0 1026.9 1.1 73
2020-03-06 18:00:00 12.2 6 Norte 22 Norte 0 1026.1 0.6 71
2020-03-06 17:00:00 12.4 6 Norte 24 Norte 0 1026 0.3 75
2020-03-06 16:00:00 13.2 11 Noroeste 32 Norte 0 1025.8 0.4 60
2020-03-06 15:00:00 12.8 14 Norte 34 Norte 0 1025.5 0.3 60
2020-03-06 14:00:00 12.5 14 Norte 35 Noroeste 0 1025.7 1.4 64
2020-03-06 13:00:00 12.5 11 Norte 33 Norte 0 1025.4 1.8 62
2020-03-06 12:00:00 12.1 10 Norte 36 Norte 0 1025.2 2.9 64
2020-03-06 11:00:00 11.3 10 Norte 35 Noroeste 0 1024.3 3.1 73
2020-03-06 10:00:00 9.4 11 Norte 37 Noroeste 0.3 1023.6 2.8 82
2020-03-06 09:00:00 10 17 Norte 44 Noroeste 0 1022.3 2.9 77
2020-03-06 08:00:00 9.6 13 Norte 32 Norte 0 1021.2 2.7 80
2020-03-06 07:00:00 8.7 19 Norte 41 Noroeste 0.3 1020.8 2.8 84
2020-03-06 06:00:00 9.8 18 Norte 35 Norte 0 1019.4 1.6 77
2020-03-06 05:00:00 9.4 8 Norte 51 Norte 0.6 1018.5 1.2 85
2020-03-06 04:00:00 10 5 Norte 26 Noroeste 0 1018 1.1 80
2020-03-06 03:00:00 9.3 8 Norte 39 Norte 0.4 1017.8 1.5 84
2020-03-06 02:00:00 10.2 9 Norte 34 Norte 0.2 1017.3 1.5 76
2020-03-06 01:00:00 10.7 8 Norte 36 Norte 0.1 1016.9 1.4 75
2020-03-06 00:00:00 10 8 Norte 30 Norte 0.2 1016.3 1.3 91
2020-03-05 23:00:00 11.2 7 Sur 36 Sur 0.4 1015.8 0.2 90
2020-03-05 22:00:00 10 4 Este 39 Norte 3.2 1015.5 -0.4 93
2020-03-05 21:00:00 10.7 19 Sudoeste 44 Sudoeste 2.1 1015 -0.8 92
2020-03-05 20:00:00 11.6 10 Sudoeste 30 Sudoeste 0 1015.6 -0.3 89
2020-03-05 19:00:00 11.6 5 Sudeste 26 Noroeste 0.7 1015.9 0.1 87
2020-03-05 18:00:00 12.5 7 Sur 26 Sudoeste 0 1015.8 0 77
2020-03-05 17:00:00 13.2 6 Norte 29 Norte 0 1015.9 0.3 75
2020-03-05 16:00:00 13.2 12 Norte 33 Norte 0 1015.8 0.9 73
2020-03-05 15:00:00 13.5 9 Norte 35 Norte 0 1015.8 2.2 75
2020-03-05 14:00:00 11.9 13 Norte 40 Norte 0.3 1015.6 3.2 84
2020-03-05 13:00:00 13.7 11 Norte 44 Norte 0 1014.9 4.5 84
2020-03-05 12:00:00 12.9 14 Norte 37 Norte 0 1013.6 4.3 82
2020-03-05 11:00:00 12.8 16 Norte 39 Norte 0 1012.4 4.2 87
2020-03-05 10:00:00 12 13 Norte 34 Sudoeste 1.5 1010.4 2.8 92
2020-03-05 09:00:00 11.4 14 Sur 41 Sudoeste 1.8 1009.3 2.1 92
2020-03-05 08:00:00 12.3 16 Sur 38 Sudoeste 0 1008.2 1.7 84
2020-03-05 07:00:00 12.1 12 Sur 41 Sudoeste 0.3 1007.6 0.6 86
2020-03-05 06:00:00 12.4 16 Sur 40 Sudoeste 0.8 1007.2 -0.3 89
2020-03-05 05:00:00 12.9 11 Sur 39 Sudoeste 0.5 1006.5 -0.9 95
2020-03-05 04:00:00 12.5 16 Sur 41 Sudoeste 1.9 1007 -0.2 95
2020-03-05 03:00:00 12.2 20 Sur 40 Sudoeste 3.4 1007.5 -1 95
2020-03-05 02:00:00 14.3 17 Sudoeste 46 Sudoeste 8.3 1007.4 -2.5 95
2020-03-05 01:00:00 15.5 18 Sudoeste 41 Sudoeste 2.4 1007.2 -3.8 92
2020-03-05 00:00:00 16.3 21 Sudoeste 37 Sudoeste 0.2 1008.5 -3.6 89
2020-03-04 23:00:00 16.3 21 Sudoeste 34 Sudoeste 0.1 1009.9 -3 89
2020-03-04 22:00:00 16.5 19 Sudoeste 54 Sudoeste 0 1011 -2.1 88
2020-03-04 21:00:00 16.8 35 Sudoeste 52 Sudoeste 0 1012.1 -1.4 88
2020-03-04 20:00:00 16.6 28 Sudoeste 54 Sudoeste 0 1012.9 -1.3 89
2020-03-04 19:00:00 16.8 33 Sudoeste 49 Sudoeste 0 1013.1 -1.8 88
2020-03-04 18:00:00 16.6 21 Sudoeste 49 Sudoeste 0 1013.5 -2.2 88
2020-03-04 17:00:00 16.8 31 Sudoeste 49 Sudoeste 0 1014.2 -2.1 84
2020-03-04 16:00:00 17.4 29 Sudoeste 48 Sudoeste 0 1014.9 -2.5 79
2020-03-04 15:00:00 16.8 20 Sudoeste 41 Sudoeste 0 1015.7 -2.2 86
2020-03-04 14:00:00 17.4 19 Sudoeste 33 Sur 0 1016.3 -1.6 87
2020-03-04 13:00:00 16.8 22 Sudoeste 36 Sudoeste 0 1017.4 -0.8 87
2020-03-04 12:00:00 16.2 19 Sudoeste 36 Sudoeste 0 1017.9 0.1 89
2020-03-04 11:00:00 14.9 17 Sudoeste 26 Sudoeste 0 1017.9 0.4 95
2020-03-04 10:00:00 14 15 Sudoeste 31 Sudoeste 0 1018.2 -- 95
2020-03-04 09:00:00 14 18 Sudoeste 37 Sudoeste 0 1017.8 -- 95
2020-03-04 08:00:00 14 16 Sudoeste -- -- -- 1017.5 -- 96
2020-03-04 07:00:00 -- -- -- -- -- -- -- -- --
2020-03-04 06:00:00 -- -- -- -- -- -- -- -- --
2020-03-04 05:00:00 -- -- -- -- -- -- -- -- --
2020-03-04 04:00:00 -- -- -- -- -- -- -- -- --
2020-03-04 03:00:00 -- -- -- -- -- -- -- -- --
2020-03-04 02:00:00 -- -- -- -- -- -- -- -- --
2020-03-04 01:00:00 13.9 16 Sudoeste 38 Sudoeste 1.9 1017.3 0.5 97
2020-03-04 00:00:00 13.8 20 Sudoeste 30 Sudoeste 2.8 1017.3 0.4 97
2020-03-03 23:00:00 13.8 18 Sudoeste 29 Sudoeste 1.2 1017 0.1 97
2020-03-03 22:00:00 13.1 8 Sur 14 Sudoeste 1.7 1016.8 0 97
2020-03-03 21:00:00 12.9 5 Sudoeste 12 Sudoeste 4.8 1016.9 0.5 96
2020-03-03 20:00:00 13.2 8 Sudoeste 13 Sudoeste 0.7 1016.9 0.9 95
2020-03-03 19:00:00 13.8 12 Sudoeste 19 Sudoeste 0 1016.8 0.9 93
2020-03-03 18:00:00 14.2 11 Sudoeste 23 Sur 0 1016.4 0.2 93
2020-03-03 17:00:00 14.1 12 Sudoeste 27 Sudoeste 0 1016 0.3 93
2020-03-03 16:00:00 14.1 13 Sur 26 Sudoeste 0 1015.9 0.8 92
2020-03-03 15:00:00 14.3 8 Sur 21 Sudoeste 0 1016.2 1.8 91
2020-03-03 14:00:00 14.5 7 Sur 30 Sudoeste 0 1015.7 2.8 92
2020-03-03 13:00:00 15.1 14 Sur 25 Sudoeste 0 1015.1 3.1 91
2020-03-03 12:00:00 14.8 15 Sur 34 Sur 0 1014.4 3.9 92
2020-03-03 11:00:00 15 17 Sur 40 Sudoeste 0 1012.9 3.7 95
2020-03-03 10:00:00 14.4 16 Sur 42 Sudoeste 0.1 1012 3.3 95
2020-03-03 09:00:00 14 19 Sur 42 Sudoeste 0.1 1010.5 2 95
2020-03-03 08:00:00 13.9 23 Sur 47 Sudoeste 0.5 1009.2 0.1 95
2020-03-03 07:00:00 13.6 29 Sudoeste 60 Sudoeste 1.4 1008.7 -1.7 94
2020-03-03 06:00:00 13.4 41 Sudoeste 63 Sudoeste 0.2 1008.5 -2.3 92
2020-03-03 05:00:00 12.9 46 Sudoeste 68 Sudoeste 0.6 1009.1 -3.8 89
2020-03-03 04:00:00 11.2 19 Sudoeste 31 Sudoeste 0.9 1010.4 -3.7 93
2020-03-03 03:00:00 10.5 22 Sudoeste 31 Sudoeste 0.2 1010.8 -4.4 93
2020-03-03 02:00:00 10.1 20 Sudoeste 29 Sudoeste 1.1 1012.9 -2.8 93
2020-03-03 01:00:00 10.3 18 Sudoeste 40 Sudoeste 0.6 1014.1 -1.7 91
2020-03-03 00:00:00 11.4 30 Sudoeste 48 Sudoeste 0 1015.2 -0.5 83
2020-03-02 23:00:00 11.2 21 Sudoeste 33 Sudoeste 0 1015.7 0 84
2020-03-02 22:00:00 10.8 21 Sudoeste 40 Sudoeste 0 1015.8 0.4 86
2020-03-02 21:00:00 10.7 20 Sudoeste 39 Sudoeste 0 1015.7 0.8 83
2020-03-02 20:00:00 11 27 Sudoeste 41 Sudoeste 0 1015.7 0.7 77
2020-03-02 19:00:00 11.4 9 Sur 27 Sur 0 1015.4 1.1 71
2020-03-02 18:00:00 11.3 9 Sudoeste 34 Sur 0 1014.9 1.2 77
2020-03-02 17:00:00 12 7 Sur 34 Sur 0.1 1015 1 71
2020-03-02 16:00:00 12.8 3 Sur 28 Sudoeste 0 1014.3 1 60
2020-03-02 15:00:00 12 9 Norte 32 Norte 0 1013.7 1.5 69
2020-03-02 14:00:00 11.3 9 Norte 36 Norte 0 1014 2.9 73
2020-03-02 13:00:00 12 7 Norte 37 Noroeste 0 1013.3 3.4 68
2020-03-02 12:00:00 12 14 Norte 36 Norte 0 1012.2 3.9 62
2020-03-02 11:00:00 10.6 6 Norte 32 Noroeste 0.1 1011.1 5.1 76
2020-03-02 10:00:00 8.7 10 Norte 30 Oeste 0 1009.9 4.8 82
2020-03-02 09:00:00 7.9 17 Norte 50 Norte 0.3 1008.3 4.7 91
2020-03-02 08:00:00 9.6 8 Norte 32 Noroeste 2.6 1006 3.1 79
2020-03-02 07:00:00 9.8 5 Sur 28 Norte 0 1005.1 3.9 78
2020-03-02 06:00:00 10.4 12 Norte 36 Norte 0.1 1003.6 4 79
2020-03-02 05:00:00 9.1 4 Sudeste 51 Norte 1.9 1002.9 5.4 91
2020-03-02 04:00:00 11 11 Norte 30 Norte 0 1001.2 6.4 82
2020-03-02 03:00:00 10.7 6 Norte 35 Noroeste 0 999.6 5.4 92
2020-03-02 02:00:00 10.5 8 Norte 46 Norte 1.8 997.5 2.6 97
2020-03-02 01:00:00 12 7 Norte 25 Norte 3.6 994.8 -2 97
2020-03-02 00:00:00 11.7 8 Sur 18 Sudoeste 7.8 994.2 -4.8 97
2020-03-01 23:00:00 11.5 3 Sur 16 Sudoeste 3.6 994.9 -5.4 97
2020-03-01 22:00:00 11.4 10 Sudoeste 27 Sudoeste 3.6 996.8 -5.1 96
2020-03-01 21:00:00 11.6 14 Sudoeste 26 Sur 4.6 999 -3.9 95
2020-03-01 20:00:00 11.6 14 Sudoeste 23 Sudoeste 2.1 1000.3 -3.8 95
2020-03-01 19:00:00 11.9 13 Sudoeste 35 Sudoeste 2.5 1001.9 -3.4 94
2020-03-01 18:00:00 12.1 26 Sudoeste 39 Sudoeste 2.5 1002.9 -2.9 89
2020-03-01 17:00:00 13 29 Sudoeste 54 Sudoeste 0.3 1004.1 -2.8 80
2020-03-01 16:00:00 14.2 36 Sudoeste 60 Sudoeste 0 1005.3 -2 64
2020-03-01 15:00:00 14 13 Sudoeste 42 Sudoeste 0 1005.8 -2 76
2020-03-01 14:00:00 14.5 18 Sudoeste 51 Sudoeste 0 1006.9 -0.8 77
2020-03-01 13:00:00 14.4 23 Sudoeste 39 Sudoeste 0 1007.3 0 71
2020-03-01 12:00:00 14.1 24 Sudoeste 49 Sudoeste 0 1007.8 0.9 75
2020-03-01 11:00:00 13 22 Sudoeste 52 Sur 0 1007.7 1.3 86
2020-03-01 10:00:00 13 32 Sudoeste 46 Sudoeste 0.1 1007.3 1.2 84
2020-03-01 09:00:00 13.1 23 Sudoeste 37 Sudoeste 0 1006.9 1.9 88
2020-03-01 08:00:00 12.9 14 Sur 36 Sudoeste 0 1006.4 2.3 87
2020-03-01 07:00:00 13.2 15 Sur 36 Sudoeste 0 1006.1 2.7 84
2020-03-01 06:00:00 12.7 15 Sur 60 Sudoeste 0.5 1005 0 87
2020-03-01 05:00:00 13.5 21 Sudoeste 63 Sudoeste 0 1004.1 -1.9 92
2020-03-01 04:00:00 12.5 24 Sudoeste 44 Sudoeste 1 1003.4 -4.7 91
2020-03-01 03:00:00 11.6 18 Sudoeste 41 Sudoeste 0.3 1005 -4.1 89
2020-03-01 02:00:00 11.6 23 Sudoeste 40 Sudoeste 0 1006 -3.8 86
2020-03-01 01:00:00 10.9 19 Sudoeste 35 Sur 0 1008.1 -1.8 88
2020-03-01 00:00:00 10.9 21 Sudoeste 31 Sudoeste 0 1009.1 -1.1 86
2020-02-29 23:00:00 11 20 Sudoeste 42 Sudoeste 0 1009.8 -0.5 84
2020-02-29 22:00:00 11.2 30 Sudoeste 54 Sudoeste 0 1009.9 -0.2 77
2020-02-29 21:00:00 11.3 24 Sudoeste 49 Sur 0 1010.2 0.3 80
2020-02-29 20:00:00 11.4 30 Sudoeste 49 Sudoeste 0 1010.3 0.1 84
2020-02-29 19:00:00 11.2 32 Sudoeste 48 Sudoeste 0 1010.1 0.6 82
2020-02-29 18:00:00 11.3 24 Sudoeste 50 Sudoeste 0 1009.9 0.2 86
2020-02-29 17:00:00 12.2 14 Sur 55 Sudoeste 0 1010.2 0.4 75
2020-02-29 16:00:00 12.4 19 Sudoeste 48 Sudoeste 0 1009.5 -0.6 72
2020-02-29 15:00:00 12.6 28 Sudoeste 51 Sudoeste 0 1009.7 0.3 75
2020-02-29 14:00:00 12.2 16 Sudoeste 45 Sudoeste 0 1009.8 0.8 75
2020-02-29 13:00:00 12.7 26 Sudoeste 56 Sudoeste 0 1010.1 2 72
2020-02-29 12:00:00 12.9 18 Sudoeste 48 Sudoeste 0 1009.4 2.6 73
2020-02-29 11:00:00 12.4 26 Sudoeste 43 Sudoeste 0.3 1009 3.8 81
2020-02-29 10:00:00 11.9 14 Sur 60 Sur 0 1008.1 3.1 77
2020-02-29 09:00:00 11.4 20 Sudoeste 61 Sur 0.1 1006.8 2.7 82
2020-02-29 08:00:00 12.1 18 Sur 39 Sudoeste 0 1005.2 2.3 77
2020-02-29 07:00:00 12.6 14 Sur 41 Sudoeste 0 1005 2.3 77
2020-02-29 06:00:00 12.7 5 Sur 39 Sudoeste 0 1004.1 2.8 82
2020-02-29 05:00:00 13.2 15 Sur 41 Sur 0 1002.9 0.4 89
2020-02-29 04:00:00 13 17 Sur 43 Sudoeste 11 1002.7 -1.8 95
2020-02-29 03:00:00 12 20 Sudoeste 46 Sudoeste 7.8 1001.3 -4.5 95
2020-02-29 02:00:00 11.8 26 Sudoeste 46 Sur 1.3 1002.5 -4.2 94
2020-02-29 01:00:00 11.3 29 Sudoeste 43 Sudoeste 2.3 1004.5 -3.4 93
2020-02-29 00:00:00 12.3 30 Sudoeste 46 Sudoeste 0.3 1005.8 -3.9 88
2020-02-28 23:00:00 12.9 35 Sudoeste 53 Sudoeste 0 1006.7 -3.7 79
2020-02-28 22:00:00 12.6 31 Sudoeste 46 Sudoeste 0 1007.9 -2.8 80
2020-02-28 21:00:00 13 15 Sudoeste 34 Sudoeste 0 1009.7 -1.3 71
2020-02-28 20:00:00 14 21 Sudoeste 38 Sudoeste 0 1010.4 -1.4 49
2020-02-28 19:00:00 15.7 27 Sudoeste 48 Sudoeste 0 1010.7 -1.8 40
2020-02-28 18:00:00 16.9 24 Sudoeste 48 Sudoeste 0 1011 -2.9 38
2020-02-28 17:00:00 17.3 27 Sudoeste 45 Sudoeste 0 1011.8 -3.9 39
2020-02-28 16:00:00 17.4 25 Sudoeste 39 Sudoeste 0 1012.5 -4.7 44
2020-02-28 15:00:00 17 27 Sudoeste 47 Sudoeste 0 1013.9 -4.1 52
2020-02-28 14:00:00 15.9 23 Sudoeste 35 Sudoeste 0 1015.7 -3.1 64
2020-02-28 13:00:00 15.4 23 Sudoeste 39 Sudoeste 0 1017.2 -2.4 69
2020-02-28 12:00:00 15.2 26 Sudoeste 38 Sudoeste 0 1018 -2 74
2020-02-28 11:00:00 13.7 22 Sudoeste 32 Sudoeste 0 1018.8 -1 84
2020-02-28 10:00:00 12.5 14 Sudoeste 23 Sudoeste 0 1019.6 -0.6 89
2020-02-28 09:00:00 11.8 18 Sudoeste 28 Sudoeste 0 1020 -0.4 91
2020-02-28 08:00:00 11.7 17 Sudoeste 28 Sudoeste 0 1019.8 -1.1 91
2020-02-28 07:00:00 11.7 14 Sudoeste 23 Sudoeste 0 1020.2 -1.3 91
2020-02-28 06:00:00 11.9 13 Sudoeste 20 Sudoeste 0 1020.4 -1.7 91
2020-02-28 05:00:00 11.7 13 Sudoeste 19 Sudoeste 0 1020.9 -1.6 91
2020-02-28 04:00:00 11.9 14 Sudoeste 20 Sur 0 1021.5 -1.3 92
2020-02-28 03:00:00 10.9 9 Sudoeste 19 Sudoeste 0 1022.1 -1.2 93
2020-02-28 02:00:00 11.3 12 Sudoeste 21 Sudoeste 0 1022.5 -0.8 90
2020-02-28 01:00:00 12.5 14 Sudoeste 26 Sudoeste 0 1022.8 -0.2 89
2020-02-28 00:00:00 12.1 6 Sudoeste 18 Sudoeste 0 1023.3 0.3 89